sensor_id;sensor_type;location;lat;lon;timestamp;P1;durP1;ratioP1;P2;durP2;ratioP2
8791;SDS011;4432;50.890;4.744;2023-02-15T00:01:08;18.20;;;8.47;;
8791;SDS011;4432;50.890;4.744;2023-02-15T00:03:35;19.17;;;10.27;;
8791;SDS011;4432;50.890;4.744;2023-02-15T00:06:01;19.60;;;10.03;;
8791;SDS011;4432;50.890;4.744;2023-02-15T00:08:27;20.33;;;12.00;;
8791;SDS011;4432;50.890;4.744;2023-02-15T00:10:53;20.53;;;9.27;;
8791;SDS011;4432;50.890;4.744;2023-02-15T00:13:28;17.07;;;10.10;;
8791;SDS011;4432;50.890;4.744;2023-02-15T00:15:56;14.57;;;9.57;;
8791;SDS011;4432;50.890;4.744;2023-02-15T00:18:26;23.67;;;10.67;;
8791;SDS011;4432;50.890;4.744;2023-02-15T00:20:51;27.23;;;11.97;;
8791;SDS011;4432;50.890;4.744;2023-02-15T00:23:17;27.47;;;11.77;;
8791;SDS011;4432;50.890;4.744;2023-02-15T00:25:43;18.20;;;10.50;;
8791;SDS011;4432;50.890;4.744;2023-02-15T00:28:09;23.73;;;12.13;;
8791;SDS011;4432;50.890;4.744;2023-02-15T00:30:34;22.20;;;10.70;;
8791;SDS011;4432;50.890;4.744;2023-02-15T00:33:00;20.13;;;10.80;;
8791;SDS011;4432;50.890;4.744;2023-02-15T00:35:26;18.43;;;10.30;;
8791;SDS011;4432;50.890;4.744;2023-02-15T00:37:51;19.77;;;10.57;;
8791;SDS011;4432;50.890;4.744;2023-02-15T00:40:17;17.27;;;10.47;;
8791;SDS011;4432;50.890;4.744;2023-02-15T00:42:43;15.87;;;8.83;;
8791;SDS011;4432;50.890;4.744;2023-02-15T00:45:09;22.93;;;10.90;;
8791;SDS011;4432;50.890;4.744;2023-02-15T00:47:35;15.73;;;10.60;;
8791;SDS011;4432;50.890;4.744;2023-02-15T00:50:00;21.43;;;10.93;;
8791;SDS011;4432;50.890;4.744;2023-02-15T00:52:28;18.13;;;9.97;;
8791;SDS011;4432;50.890;4.744;2023-02-15T00:54:54;17.17;;;10.33;;
8791;SDS011;4432;50.890;4.744;2023-02-15T00:57:19;17.07;;;10.53;;
8791;SDS011;4432;50.890;4.744;2023-02-15T00:59:45;22.67;;;10.50;;
8791;SDS011;4432;50.890;4.744;2023-02-15T01:02:11;24.87;;;11.17;;
8791;SDS011;4432;50.890;4.744;2023-02-15T01:04:36;21.47;;;11.60;;
8791;SDS011;4432;50.890;4.744;2023-02-15T01:07:02;23.20;;;10.97;;
8791;SDS011;4432;50.890;4.744;2023-02-15T01:09:28;26.23;;;13.63;;
8791;SDS011;4432;50.890;4.744;2023-02-15T01:11:54;21.57;;;11.60;;
8791;SDS011;4432;50.890;4.744;2023-02-15T01:14:20;18.57;;;11.40;;
8791;SDS011;4432;50.890;4.744;2023-02-15T01:16:45;24.60;;;12.50;;
8791;SDS011;4432;50.890;4.744;2023-02-15T01:19:11;17.87;;;10.40;;
8791;SDS011;4432;50.890;4.744;2023-02-15T01:21:37;25.80;;;12.07;;
8791;SDS011;4432;50.890;4.744;2023-02-15T01:24:10;19.53;;;11.47;;
8791;SDS011;4432;50.890;4.744;2023-02-15T01:26:39;21.23;;;10.30;;
8791;SDS011;4432;50.890;4.744;2023-02-15T01:29:05;23.43;;;12.70;;
8791;SDS011;4432;50.890;4.744;2023-02-15T01:31:31;26.33;;;11.47;;
8791;SDS011;4432;50.890;4.744;2023-02-15T01:33:56;23.70;;;10.93;;
8791;SDS011;4432;50.890;4.744;2023-02-15T01:36:22;22.70;;;11.23;;
8791;SDS011;4432;50.890;4.744;2023-02-15T01:38:48;25.27;;;12.00;;
8791;SDS011;4432;50.890;4.744;2023-02-15T01:41:14;21.27;;;11.00;;
8791;SDS011;4432;50.890;4.744;2023-02-15T01:43:54;26.47;;;12.07;;
8791;SDS011;4432;50.890;4.744;2023-02-15T01:46:24;29.27;;;12.93;;
8791;SDS011;4432;50.890;4.744;2023-02-15T01:49:02;22.60;;;11.07;;
8791;SDS011;4432;50.890;4.744;2023-02-15T01:51:33;23.77;;;12.37;;
8791;SDS011;4432;50.890;4.744;2023-02-15T01:54:06;27.77;;;11.17;;
8791;SDS011;4432;50.890;4.744;2023-02-15T01:56:40;24.73;;;11.97;;
8791;SDS011;4432;50.890;4.744;2023-02-15T01:59:08;23.07;;;12.50;;
8791;SDS011;4432;50.890;4.744;2023-02-15T02:01:38;18.50;;;10.67;;
8791;SDS011;4432;50.890;4.744;2023-02-15T02:06:34;23.70;;;11.27;;
8791;SDS011;4432;50.890;4.744;2023-02-15T02:09:01;19.00;;;10.87;;
8791;SDS011;4432;50.890;4.744;2023-02-15T02:11:27;20.80;;;12.23;;
8791;SDS011;4432;50.890;4.744;2023-02-15T02:13:53;32.70;;;12.43;;
8791;SDS011;4432;50.890;4.744;2023-02-15T02:18:58;22.40;;;13.40;;
8791;SDS011;4432;50.890;4.744;2023-02-15T02:31:07;21.13;;;12.13;;
8791;SDS011;4432;50.890;4.744;2023-02-15T02:36:37;27.47;;;11.53;;
8791;SDS011;4432;50.890;4.744;2023-02-15T02:39:13;27.40;;;12.70;;
8791;SDS011;4432;50.890;4.744;2023-02-15T02:41:56;29.40;;;13.50;;
8791;SDS011;4432;50.890;4.744;2023-02-15T02:47:20;21.73;;;11.27;;
8791;SDS011;4432;50.890;4.744;2023-02-15T02:50:00;25.17;;;12.13;;
8791;SDS011;4432;50.890;4.744;2023-02-15T02:52:44;17.20;;;9.17;;
8791;SDS011;4432;50.890;4.744;2023-02-15T02:58:00;19.50;;;10.40;;
8791;SDS011;4432;50.890;4.744;2023-02-15T03:03:28;28.43;;;13.73;;
8791;SDS011;4432;50.890;4.744;2023-02-15T03:06:02;23.83;;;11.93;;
8791;SDS011;4432;50.890;4.744;2023-02-15T03:08:34;25.60;;;12.83;;
8791;SDS011;4432;50.890;4.744;2023-02-15T03:11:03;22.60;;;10.63;;
8791;SDS011;4432;50.890;4.744;2023-02-15T03:13:29;26.50;;;13.40;;
8791;SDS011;4432;50.890;4.744;2023-02-15T03:15:56;21.67;;;10.67;;
8791;SDS011;4432;50.890;4.744;2023-02-15T03:18:46;26.03;;;11.70;;
8791;SDS011;4432;50.890;4.744;2023-02-15T03:21:19;21.50;;;11.37;;
8791;SDS011;4432;50.890;4.744;2023-02-15T03:23:52;20.23;;;11.27;;
8791;SDS011;4432;50.890;4.744;2023-02-15T03:26:24;24.90;;;11.23;;
8791;SDS011;4432;50.890;4.744;2023-02-15T03:28:52;22.40;;;12.63;;
8791;SDS011;4432;50.890;4.744;2023-02-15T03:31:21;22.90;;;12.60;;
8791;SDS011;4432;50.890;4.744;2023-02-15T03:33:54;27.27;;;12.23;;
8791;SDS011;4432;50.890;4.744;2023-02-15T03:36:24;30.40;;;12.20;;
8791;SDS011;4432;50.890;4.744;2023-02-15T03:42:04;20.93;;;10.43;;
8791;SDS011;4432;50.890;4.744;2023-02-15T03:47:20;23.43;;;12.53;;
8791;SDS011;4432;50.890;4.744;2023-02-15T03:52:23;29.00;;;11.53;;
8791;SDS011;4432;50.890;4.744;2023-02-15T03:54:51;22.87;;;12.63;;
8791;SDS011;4432;50.890;4.744;2023-02-15T04:00:05;25.47;;;12.53;;
8791;SDS011;4432;50.890;4.744;2023-02-15T04:05:40;24.87;;;11.93;;
8791;SDS011;4432;50.890;4.744;2023-02-15T04:08:08;23.10;;;11.87;;
8791;SDS011;4432;50.890;4.744;2023-02-15T04:10:34;26.30;;;12.57;;
8791;SDS011;4432;50.890;4.744;2023-02-15T04:13:39;19.47;;;11.57;;
8791;SDS011;4432;50.890;4.744;2023-02-15T04:16:04;17.87;;;10.57;;
8791;SDS011;4432;50.890;4.744;2023-02-15T04:18:31;23.57;;;11.80;;
8791;SDS011;4432;50.890;4.744;2023-02-15T04:21:17;21.33;;;11.17;;
8791;SDS011;4432;50.890;4.744;2023-02-15T04:24:02;21.63;;;11.40;;
8791;SDS011;4432;50.890;4.744;2023-02-15T04:26:46;21.73;;;10.77;;
8791;SDS011;4432;50.890;4.744;2023-02-15T04:29:17;26.30;;;11.30;;
8791;SDS011;4432;50.890;4.744;2023-02-15T04:31:44;21.23;;;10.67;;
8791;SDS011;4432;50.890;4.744;2023-02-15T04:34:10;25.30;;;12.47;;
8791;SDS011;4432;50.890;4.744;2023-02-15T04:36:36;27.47;;;12.57;;
8791;SDS011;4432;50.890;4.744;2023-02-15T04:39:02;19.57;;;11.80;;
8791;SDS011;4432;50.890;4.744;2023-02-15T04:41:29;18.87;;;11.37;;
8791;SDS011;4432;50.890;4.744;2023-02-15T04:43:54;16.37;;;9.43;;
8791;SDS011;4432;50.890;4.744;2023-02-15T04:46:21;20.90;;;10.43;;
8791;SDS011;4432;50.890;4.744;2023-02-15T04:48:47;21.73;;;10.13;;
8791;SDS011;4432;50.890;4.744;2023-02-15T04:51:12;23.07;;;11.47;;
8791;SDS011;4432;50.890;4.744;2023-02-15T04:53:38;20.33;;;10.90;;
8791;SDS011;4432;50.890;4.744;2023-02-15T04:56:04;19.77;;;11.83;;
8791;SDS011;4432;50.890;4.744;2023-02-15T04:58:30;21.43;;;10.57;;
8791;SDS011;4432;50.890;4.744;2023-02-15T05:00:56;23.17;;;10.53;;
8791;SDS011;4432;50.890;4.744;2023-02-15T05:03:22;22.10;;;10.77;;
8791;SDS011;4432;50.890;4.744;2023-02-15T05:05:48;24.63;;;12.60;;
8791;SDS011;4432;50.890;4.744;2023-02-15T05:08:13;26.27;;;11.90;;
8791;SDS011;4432;50.890;4.744;2023-02-15T05:10:39;30.13;;;11.93;;
8791;SDS011;4432;50.890;4.744;2023-02-15T05:13:05;20.60;;;12.03;;
8791;SDS011;4432;50.890;4.744;2023-02-15T05:15:31;20.53;;;10.37;;
8791;SDS011;4432;50.890;4.744;2023-02-15T05:17:56;19.60;;;9.83;;
8791;SDS011;4432;50.890;4.744;2023-02-15T05:20:22;18.53;;;10.37;;
8791;SDS011;4432;50.890;4.744;2023-02-15T05:22:48;20.33;;;10.20;;
8791;SDS011;4432;50.890;4.744;2023-02-15T05:25:13;21.97;;;10.63;;
8791;SDS011;4432;50.890;4.744;2023-02-15T05:27:57;19.27;;;11.00;;
8791;SDS011;4432;50.890;4.744;2023-02-15T05:30:42;20.53;;;9.93;;
8791;SDS011;4432;50.890;4.744;2023-02-15T05:33:08;20.77;;;11.47;;
8791;SDS011;4432;50.890;4.744;2023-02-15T05:35:34;24.77;;;12.63;;
8791;SDS011;4432;50.890;4.744;2023-02-15T05:38:00;20.73;;;10.73;;
8791;SDS011;4432;50.890;4.744;2023-02-15T05:40:26;28.67;;;11.87;;
8791;SDS011;4432;50.890;4.744;2023-02-15T05:42:52;23.67;;;11.03;;
8791;SDS011;4432;50.890;4.744;2023-02-15T05:45:17;21.73;;;10.27;;
8791;SDS011;4432;50.890;4.744;2023-02-15T05:47:43;23.30;;;11.63;;
8791;SDS011;4432;50.890;4.744;2023-02-15T05:50:09;17.60;;;11.23;;
8791;SDS011;4432;50.890;4.744;2023-02-15T05:52:36;21.40;;;11.23;;
8791;SDS011;4432;50.890;4.744;2023-02-15T05:55:02;17.17;;;10.73;;
8791;SDS011;4432;50.890;4.744;2023-02-15T05:57:29;21.17;;;11.57;;
8791;SDS011;4432;50.890;4.744;2023-02-15T05:59:55;22.63;;;11.90;;
8791;SDS011;4432;50.890;4.744;2023-02-15T06:02:21;22.60;;;12.50;;
8791;SDS011;4432;50.890;4.744;2023-02-15T06:04:47;23.17;;;12.60;;
8791;SDS011;4432;50.890;4.744;2023-02-15T06:07:13;23.33;;;10.60;;
8791;SDS011;4432;50.890;4.744;2023-02-15T06:09:38;20.33;;;11.33;;
8791;SDS011;4432;50.890;4.744;2023-02-15T06:12:04;23.00;;;11.30;;
8791;SDS011;4432;50.890;4.744;2023-02-15T06:14:30;21.43;;;10.73;;
8791;SDS011;4432;50.890;4.744;2023-02-15T06:16:56;17.53;;;10.37;;
8791;SDS011;4432;50.890;4.744;2023-02-15T06:19:21;25.80;;;12.40;;
8791;SDS011;4432;50.890;4.744;2023-02-15T06:21:48;20.80;;;10.73;;
8791;SDS011;4432;50.890;4.744;2023-02-15T06:24:14;23.03;;;10.60;;
8791;SDS011;4432;50.890;4.744;2023-02-15T06:26:39;25.30;;;12.83;;
8791;SDS011;4432;50.890;4.744;2023-02-15T06:29:05;28.03;;;11.77;;
8791;SDS011;4432;50.890;4.744;2023-02-15T06:31:31;24.07;;;12.87;;
8791;SDS011;4432;50.890;4.744;2023-02-15T06:33:57;24.67;;;11.77;;
8791;SDS011;4432;50.890;4.744;2023-02-15T06:36:29;23.80;;;11.80;;
8791;SDS011;4432;50.890;4.744;2023-02-15T06:38:55;21.60;;;10.60;;
8791;SDS011;4432;50.890;4.744;2023-02-15T06:41:22;19.30;;;10.03;;
8791;SDS011;4432;50.890;4.744;2023-02-15T06:43:48;22.80;;;11.60;;
8791;SDS011;4432;50.890;4.744;2023-02-15T06:46:14;17.10;;;10.77;;
8791;SDS011;4432;50.890;4.744;2023-02-15T06:48:40;22.17;;;11.47;;
8791;SDS011;4432;50.890;4.744;2023-02-15T06:51:06;22.27;;;9.77;;
8791;SDS011;4432;50.890;4.744;2023-02-15T06:53:32;20.20;;;10.43;;
8791;SDS011;4432;50.890;4.744;2023-02-15T06:56:01;19.03;;;11.00;;
8791;SDS011;4432;50.890;4.744;2023-02-15T06:58:31;23.13;;;11.50;;
8791;SDS011;4432;50.890;4.744;2023-02-15T07:00:58;22.93;;;11.43;;
8791;SDS011;4432;50.890;4.744;2023-02-15T07:03:24;21.43;;;10.43;;
8791;SDS011;4432;50.890;4.744;2023-02-15T07:05:54;27.40;;;12.60;;
8791;SDS011;4432;50.890;4.744;2023-02-15T07:08:24;29.33;;;11.83;;
8791;SDS011;4432;50.890;4.744;2023-02-15T07:10:51;20.90;;;11.20;;
8791;SDS011;4432;50.890;4.744;2023-02-15T07:13:17;16.73;;;10.50;;
8791;SDS011;4432;50.890;4.744;2023-02-15T07:15:44;22.60;;;10.47;;
8791;SDS011;4432;50.890;4.744;2023-02-15T07:18:10;17.07;;;10.13;;
8791;SDS011;4432;50.890;4.744;2023-02-15T07:20:36;18.23;;;9.67;;
8791;SDS011;4432;50.890;4.744;2023-02-15T07:23:03;18.60;;;9.57;;
8791;SDS011;4432;50.890;4.744;2023-02-15T07:25:29;21.83;;;11.43;;
8791;SDS011;4432;50.890;4.744;2023-02-15T07:27:58;24.33;;;11.60;;
8791;SDS011;4432;50.890;4.744;2023-02-15T07:30:29;21.63;;;11.60;;
8791;SDS011;4432;50.890;4.744;2023-02-15T07:32:58;23.23;;;12.17;;
8791;SDS011;4432;50.890;4.744;2023-02-15T07:35:46;24.37;;;13.00;;
8791;SDS011;4432;50.890;4.744;2023-02-15T07:38:13;26.53;;;13.47;;
8791;SDS011;4432;50.890;4.744;2023-02-15T07:40:39;22.63;;;11.67;;
8791;SDS011;4432;50.890;4.744;2023-02-15T07:43:05;22.10;;;13.10;;
8791;SDS011;4432;50.890;4.744;2023-02-15T07:45:31;21.63;;;10.97;;
8791;SDS011;4432;50.890;4.744;2023-02-15T07:47:56;24.80;;;11.83;;
8791;SDS011;4432;50.890;4.744;2023-02-15T07:50:22;26.50;;;12.47;;
8791;SDS011;4432;50.890;4.744;2023-02-15T07:52:48;22.37;;;11.37;;
8791;SDS011;4432;50.890;4.744;2023-02-15T07:55:14;21.83;;;11.77;;
8791;SDS011;4432;50.890;4.744;2023-02-15T07:57:43;23.80;;;12.33;;
8791;SDS011;4432;50.890;4.744;2023-02-15T08:00:10;22.93;;;11.73;;
8791;SDS011;4432;50.890;4.744;2023-02-15T08:02:37;23.17;;;13.30;;
8791;SDS011;4432;50.890;4.744;2023-02-15T08:05:03;30.33;;;15.50;;
8791;SDS011;4432;50.890;4.744;2023-02-15T08:07:29;32.50;;;14.83;;
8791;SDS011;4432;50.890;4.744;2023-02-15T08:09:55;29.90;;;14.53;;
8791;SDS011;4432;50.890;4.744;2023-02-15T08:12:20;31.67;;;14.27;;
8791;SDS011;4432;50.890;4.744;2023-02-15T08:14:46;28.90;;;14.17;;
8791;SDS011;4432;50.890;4.744;2023-02-15T08:17:12;29.07;;;14.53;;
8791;SDS011;4432;50.890;4.744;2023-02-15T08:19:37;22.90;;;14.77;;
8791;SDS011;4432;50.890;4.744;2023-02-15T08:22:04;25.60;;;12.73;;
8791;SDS011;4432;50.890;4.744;2023-02-15T08:24:32;27.87;;;13.10;;
8791;SDS011;4432;50.890;4.744;2023-02-15T08:27:02;23.70;;;13.17;;
8791;SDS011;4432;50.890;4.744;2023-02-15T08:29:29;25.37;;;13.50;;
8791;SDS011;4432;50.890;4.744;2023-02-15T08:31:58;25.97;;;13.17;;
8791;SDS011;4432;50.890;4.744;2023-02-15T08:34:33;24.63;;;13.10;;
8791;SDS011;4432;50.890;4.744;2023-02-15T08:37:03;23.47;;;11.53;;
8791;SDS011;4432;50.890;4.744;2023-02-15T08:39:28;24.63;;;13.43;;
8791;SDS011;4432;50.890;4.744;2023-02-15T08:41:54;26.23;;;12.53;;
8791;SDS011;4432;50.890;4.744;2023-02-15T08:44:20;28.13;;;13.73;;
8791;SDS011;4432;50.890;4.744;2023-02-15T08:46:46;23.10;;;12.63;;
8791;SDS011;4432;50.890;4.744;2023-02-15T08:49:15;24.17;;;13.10;;
8791;SDS011;4432;50.890;4.744;2023-02-15T08:51:45;21.13;;;12.00;;
8791;SDS011;4432;50.890;4.744;2023-02-15T08:54:12;20.80;;;11.47;;
8791;SDS011;4432;50.890;4.744;2023-02-15T08:56:40;26.37;;;11.93;;
8791;SDS011;4432;50.890;4.744;2023-02-15T08:59:07;25.07;;;12.37;;
8791;SDS011;4432;50.890;4.744;2023-02-15T09:01:41;24.70;;;12.83;;
8791;SDS011;4432;50.890;4.744;2023-02-15T09:04:07;22.10;;;11.27;;
8791;SDS011;4432;50.890;4.744;2023-02-15T09:06:34;19.27;;;11.53;;
8791;SDS011;4432;50.890;4.744;2023-02-15T09:09:01;20.23;;;11.07;;
8791;SDS011;4432;50.890;4.744;2023-02-15T09:11:29;17.20;;;10.27;;
8791;SDS011;4432;50.890;4.744;2023-02-15T09:14:03;21.27;;;11.47;;
8791;SDS011;4432;50.890;4.744;2023-02-15T09:16:32;16.77;;;10.17;;
8791;SDS011;4432;50.890;4.744;2023-02-15T09:18:59;17.60;;;10.40;;
8791;SDS011;4432;50.890;4.744;2023-02-15T09:21:32;19.23;;;10.80;;
8791;SDS011;4432;50.890;4.744;2023-02-15T09:23:59;17.47;;;10.87;;
8791;SDS011;4432;50.890;4.744;2023-02-15T09:26:27;20.50;;;10.67;;
8791;SDS011;4432;50.890;4.744;2023-02-15T09:28:55;15.83;;;10.23;;
8791;SDS011;4432;50.890;4.744;2023-02-15T09:31:24;18.50;;;10.30;;
8791;SDS011;4432;50.890;4.744;2023-02-15T09:33:50;21.17;;;10.77;;
8791;SDS011;4432;50.890;4.744;2023-02-15T09:36:18;19.10;;;10.43;;
8791;SDS011;4432;50.890;4.744;2023-02-15T09:39:06;21.33;;;10.43;;
8791;SDS011;4432;50.890;4.744;2023-02-15T09:54:58;18.20;;;10.00;;
8791;SDS011;4432;50.890;4.744;2023-02-15T10:00:40;18.37;;;10.23;;
8791;SDS011;4432;50.890;4.744;2023-02-15T10:05:53;17.67;;;10.33;;
8791;SDS011;4432;50.890;4.744;2023-02-15T10:25:27;17.37;;;9.97;;
8791;SDS011;4432;50.890;4.744;2023-02-15T10:28:19;17.57;;;9.97;;
8791;SDS011;4432;50.890;4.744;2023-02-15T10:31:11;16.97;;;10.10;;
8791;SDS011;4432;50.890;4.744;2023-02-15T10:33:52;14.07;;;8.93;;
8791;SDS011;4432;50.890;4.744;2023-02-15T10:37:05;16.77;;;9.80;;
8791;SDS011;4432;50.890;4.744;2023-02-15T10:50:06;19.57;;;9.17;;
8791;SDS011;4432;50.890;4.744;2023-02-15T11:00:47;20.27;;;9.93;;
8791;SDS011;4432;50.890;4.744;2023-02-15T11:06:18;15.50;;;8.37;;
8791;SDS011;4432;50.890;4.744;2023-02-15T11:08:47;21.60;;;10.03;;
8791;SDS011;4432;50.890;4.744;2023-02-15T11:11:27;17.63;;;9.67;;
8791;SDS011;4432;50.890;4.744;2023-02-15T11:13:58;15.20;;;9.07;;
8791;SDS011;4432;50.890;4.744;2023-02-15T11:16:37;20.13;;;9.13;;
8791;SDS011;4432;50.890;4.744;2023-02-15T11:19:14;17.40;;;9.23;;
8791;SDS011;4432;50.890;4.744;2023-02-15T11:21:48;18.33;;;9.87;;
8791;SDS011;4432;50.890;4.744;2023-02-15T11:24:17;17.33;;;9.53;;
8791;SDS011;4432;50.890;4.744;2023-02-15T11:26:54;16.03;;;9.27;;
8791;SDS011;4432;50.890;4.744;2023-02-15T11:31:53;21.13;;;9.40;;
8791;SDS011;4432;50.890;4.744;2023-02-15T11:34:22;20.93;;;9.60;;
8791;SDS011;4432;50.890;4.744;2023-02-15T11:37:00;19.53;;;9.77;;
8791;SDS011;4432;50.890;4.744;2023-02-15T11:39:31;18.53;;;9.80;;
8791;SDS011;4432;50.890;4.744;2023-02-15T11:42:01;17.10;;;10.30;;
8791;SDS011;4432;50.890;4.744;2023-02-15T11:47:14;16.10;;;9.77;;
8791;SDS011;4432;50.890;4.744;2023-02-15T11:49:40;23.33;;;9.50;;
8791;SDS011;4432;50.890;4.744;2023-02-15T11:52:07;22.33;;;9.73;;
8791;SDS011;4432;50.890;4.744;2023-02-15T11:54:39;16.90;;;10.10;;
8791;SDS011;4432;50.890;4.744;2023-02-15T11:59:44;22.07;;;9.70;;
8791;SDS011;4432;50.890;4.744;2023-02-15T12:02:19;21.10;;;10.60;;
8791;SDS011;4432;50.890;4.744;2023-02-15T12:04:51;18.30;;;9.33;;
8791;SDS011;4432;50.890;4.744;2023-02-15T12:07:37;19.40;;;10.90;;
8791;SDS011;4432;50.890;4.744;2023-02-15T12:12:39;19.30;;;9.87;;
8791;SDS011;4432;50.890;4.744;2023-02-15T12:15:09;22.57;;;10.83;;
8791;SDS011;4432;50.890;4.744;2023-02-15T12:17:49;18.43;;;9.63;;
8791;SDS011;4432;50.890;4.744;2023-02-15T12:23:26;17.93;;;9.07;;
8791;SDS011;4432;50.890;4.744;2023-02-15T12:25:41;24.50;;;10.30;;
8791;SDS011;4432;50.890;4.744;2023-02-15T12:31:21;21.03;;;10.60;;
8791;SDS011;4432;50.890;4.744;2023-02-15T12:33:53;22.23;;;11.33;;
8791;SDS011;4432;50.890;4.744;2023-02-15T12:36:24;15.57;;;9.13;;
8791;SDS011;4432;50.890;4.744;2023-02-15T12:41:45;20.07;;;10.57;;
8791;SDS011;4432;50.890;4.744;2023-02-15T12:44:24;22.00;;;11.13;;
8791;SDS011;4432;50.890;4.744;2023-02-15T12:47:03;20.97;;;10.33;;
8791;SDS011;4432;50.890;4.744;2023-02-15T12:49:36;25.33;;;11.80;;
8791;SDS011;4432;50.890;4.744;2023-02-15T12:52:03;22.23;;;10.97;;
8791;SDS011;4432;50.890;4.744;2023-02-15T12:54:50;22.63;;;10.97;;
8791;SDS011;4432;50.890;4.744;2023-02-15T12:57:27;22.53;;;11.50;;
8791;SDS011;4432;50.890;4.744;2023-02-15T12:59:57;18.67;;;9.97;;
8791;SDS011;4432;50.890;4.744;2023-02-15T13:02:44;16.87;;;9.77;;
8791;SDS011;4432;50.890;4.744;2023-02-15T13:07:50;23.13;;;12.30;;
8791;SDS011;4432;50.890;4.744;2023-02-15T13:10:32;23.53;;;10.37;;
8791;SDS011;4432;50.890;4.744;2023-02-15T13:13:01;17.77;;;10.57;;
8791;SDS011;4432;50.890;4.744;2023-02-15T13:15:37;22.90;;;11.20;;
8791;SDS011;4432;50.890;4.744;2023-02-15T13:18:10;22.17;;;10.40;;
8791;SDS011;4432;50.890;4.744;2023-02-15T13:20:41;22.37;;;10.33;;
8791;SDS011;4432;50.890;4.744;2023-02-15T13:23:31;18.90;;;10.53;;
8791;SDS011;4432;50.890;4.744;2023-02-15T13:25:59;25.43;;;11.30;;
8791;SDS011;4432;50.890;4.744;2023-02-15T13:28:51;20.33;;;10.60;;
8791;SDS011;4432;50.890;4.744;2023-02-15T13:31:18;19.40;;;10.80;;
8791;SDS011;4432;50.890;4.744;2023-02-15T13:33:46;22.47;;;10.90;;
8791;SDS011;4432;50.890;4.744;2023-02-15T13:47:53;21.00;;;10.87;;
8791;SDS011;4432;50.890;4.744;2023-02-15T13:50:45;20.50;;;10.53;;
8791;SDS011;4432;50.890;4.744;2023-02-15T13:53:21;23.20;;;11.37;;
8791;SDS011;4432;50.890;4.744;2023-02-15T14:07:30;19.23;;;10.67;;
8791;SDS011;4432;50.890;4.744;2023-02-15T14:16:30;19.30;;;11.00;;
8791;SDS011;4432;50.890;4.744;2023-02-15T14:22:36;17.73;;;10.53;;
8791;SDS011;4432;50.890;4.744;2023-02-15T14:30:38;20.93;;;11.27;;
8791;SDS011;4432;50.890;4.744;2023-02-15T14:33:10;25.53;;;;;
8791;SDS011;4432;50.890;4.744;2023-02-15T14:35:52;22.30;;;11.00;;
8791;SDS011;4432;50.890;4.744;2023-02-15T14:45:04;21.70;;;11.87;;
8791;SDS011;4432;50.890;4.744;2023-02-15T14:47:08;19.47;;;10.27;;
8791;SDS011;4432;50.890;4.744;2023-02-15T14:49:38;18.73;;;10.17;;
8791;SDS011;4432;50.890;4.744;2023-02-15T14:52:06;19.70;;;10.87;;
8791;SDS011;4432;50.890;4.744;2023-02-15T15:04:38;24.57;;;11.47;;
8791;SDS011;4432;50.890;4.744;2023-02-15T15:07:22;24.00;;;12.10;;
8791;SDS011;4432;50.890;4.744;2023-02-15T15:10:38;19.87;;;11.13;;
8791;SDS011;4432;50.890;4.744;2023-02-15T15:12:43;19.23;;;10.57;;
8791;SDS011;4432;50.890;4.744;2023-02-15T15:15:52;20.63;;;11.37;;
8791;SDS011;4432;50.890;4.744;2023-02-15T15:21:10;21.00;;;11.00;;
8791;SDS011;4432;50.890;4.744;2023-02-15T15:23:38;22.27;;;11.20;;
8791;SDS011;4432;50.890;4.744;2023-02-15T15:26:20;20.07;;;10.37;;
8791;SDS011;4432;50.890;4.744;2023-02-15T15:34:17;24.07;;;12.10;;
8791;SDS011;4432;50.890;4.744;2023-02-15T15:37:03;20.97;;;11.57;;
8791;SDS011;4432;50.890;4.744;2023-02-15T15:42:48;21.20;;;11.00;;
8791;SDS011;4432;50.890;4.744;2023-02-15T15:48:14;21.60;;;10.37;;
8791;SDS011;4432;50.890;4.744;2023-02-15T15:50:53;19.50;;;10.33;;
8791;SDS011;4432;50.890;4.744;2023-02-15T15:53:25;19.70;;;10.07;;
8791;SDS011;4432;50.890;4.744;2023-02-15T15:55:59;22.33;;;11.53;;
8791;SDS011;4432;50.890;4.744;2023-02-15T15:58:28;19.60;;;10.70;;
8791;SDS011;4432;50.890;4.744;2023-02-15T16:03:36;21.43;;;11.03;;
8791;SDS011;4432;50.890;4.744;2023-02-15T16:06:02;23.87;;;12.03;;
8791;SDS011;4432;50.890;4.744;2023-02-15T16:08:29;24.00;;;11.20;;
8791;SDS011;4432;50.890;4.744;2023-02-15T16:10:56;21.63;;;11.50;;
8791;SDS011;4432;50.890;4.744;2023-02-15T16:13:24;20.33;;;11.23;;
8791;SDS011;4432;50.890;4.744;2023-02-15T16:15:52;26.63;;;11.90;;
8791;SDS011;4432;50.890;4.744;2023-02-15T16:18:21;25.30;;;13.03;;
8791;SDS011;4432;50.890;4.744;2023-02-15T16:21:33;23.53;;;12.00;;
8791;SDS011;4432;50.890;4.744;2023-02-15T16:23:58;21.40;;;11.33;;
8791;SDS011;4432;50.890;4.744;2023-02-15T16:29:34;20.03;;;10.90;;
8791;SDS011;4432;50.890;4.744;2023-02-15T16:32:01;27.30;;;12.53;;
8791;SDS011;4432;50.890;4.744;2023-02-15T16:34:27;21.13;;;11.33;;
8791;SDS011;4432;50.890;4.744;2023-02-15T16:37:11;28.37;;;12.43;;
8791;SDS011;4432;50.890;4.744;2023-02-15T16:39:49;21.87;;;11.40;;
8791;SDS011;4432;50.890;4.744;2023-02-15T16:42:15;22.77;;;12.53;;
8791;SDS011;4432;50.890;4.744;2023-02-15T16:44:43;21.27;;;11.53;;
8791;SDS011;4432;50.890;4.744;2023-02-15T16:47:18;19.30;;;10.90;;
8791;SDS011;4432;50.890;4.744;2023-02-15T16:49:48;22.30;;;12.40;;
8791;SDS011;4432;50.890;4.744;2023-02-15T16:52:23;23.87;;;11.63;;
8791;SDS011;4432;50.890;4.744;2023-02-15T16:54:58;19.77;;;12.07;;
8791;SDS011;4432;50.890;4.744;2023-02-15T16:57:32;26.27;;;12.67;;
8791;SDS011;4432;50.890;4.744;2023-02-15T17:00:02;24.10;;;12.83;;
8791;SDS011;4432;50.890;4.744;2023-02-15T17:02:42;24.67;;;12.43;;
8791;SDS011;4432;50.890;4.744;2023-02-15T17:05:40;24.20;;;12.33;;
8791;SDS011;4432;50.890;4.744;2023-02-15T17:13:25;26.83;;;12.90;;
8791;SDS011;4432;50.890;4.744;2023-02-15T17:18:24;26.67;;;13.17;;
8791;SDS011;4432;50.890;4.744;2023-02-15T17:20:56;31.10;;;12.80;;
8791;SDS011;4432;50.890;4.744;2023-02-15T17:25:58;25.33;;;13.07;;
8791;SDS011;4432;50.890;4.744;2023-02-15T17:28:26;25.53;;;13.37;;
8791;SDS011;4432;50.890;4.744;2023-02-15T17:30:54;23.17;;;13.57;;
8791;SDS011;4432;50.890;4.744;2023-02-15T17:33:23;29.03;;;14.10;;
8791;SDS011;4432;50.890;4.744;2023-02-15T17:36:06;25.70;;;13.80;;
8791;SDS011;4432;50.890;4.744;2023-02-15T17:38:34;29.40;;;13.60;;
8791;SDS011;4432;50.890;4.744;2023-02-15T17:41:01;26.33;;;12.90;;
8791;SDS011;4432;50.890;4.744;2023-02-15T17:43:27;24.37;;;13.07;;
8791;SDS011;4432;50.890;4.744;2023-02-15T17:45:53;24.83;;;13.70;;
8791;SDS011;4432;50.890;4.744;2023-02-15T17:48:36;27.17;;;13.60;;
8791;SDS011;4432;50.890;4.744;2023-02-15T17:51:05;28.40;;;12.80;;
8791;SDS011;4432;50.890;4.744;2023-02-15T17:53:36;29.77;;;14.77;;
8791;SDS011;4432;50.890;4.744;2023-02-15T17:56:02;30.97;;;14.43;;
8791;SDS011;4432;50.890;4.744;2023-02-15T17:58:37;26.03;;;14.57;;
8791;SDS011;4432;50.890;4.744;2023-02-15T18:01:10;27.53;;;13.83;;
8791;SDS011;4432;50.890;4.744;2023-02-15T18:03:59;22.93;;;12.43;;
8791;SDS011;4432;50.890;4.744;2023-02-15T18:06:43;26.83;;;13.97;;
8791;SDS011;4432;50.890;4.744;2023-02-15T18:09:27;27.37;;;13.60;;
8791;SDS011;4432;50.890;4.744;2023-02-15T18:12:19;30.63;;;14.60;;
8791;SDS011;4432;50.890;4.744;2023-02-15T18:14:48;34.87;;;14.03;;
8791;SDS011;4432;50.890;4.744;2023-02-15T18:17:15;28.27;;;13.27;;
8791;SDS011;4432;50.890;4.744;2023-02-15T18:19:42;29.27;;;13.80;;
8791;SDS011;4432;50.890;4.744;2023-02-15T18:22:12;31.73;;;14.00;;
8791;SDS011;4432;50.890;4.744;2023-02-15T18:24:40;26.37;;;14.77;;
8791;SDS011;4432;50.890;4.744;2023-02-15T18:27:06;35.53;;;14.17;;
8791;SDS011;4432;50.890;4.744;2023-02-15T18:29:31;25.07;;;13.60;;
8791;SDS011;4432;50.890;4.744;2023-02-15T18:31:58;20.40;;;11.77;;
8791;SDS011;4432;50.890;4.744;2023-02-15T18:34:29;31.87;;;15.40;;
8791;SDS011;4432;50.890;4.744;2023-02-15T18:36:58;25.27;;;13.83;;